Meteo Giornale » Osservazioni meteo Italia » Grazzanise

ore: 18:55 - Osservazioni Meteo Grazzanise
Lat. 41° 3' N Lon. 14° 4' E Alt. 9 metri s.l.m.

sereno Europe/Rome

10 °C

Sereno

Temp. 24 Ore

2 °C

14 °C

Nord

1.8 Km/h

Dew point 7 °C

Umidità 81 %

Visibilità  10 Km

Il sole sorge alle ore 06:48

Il sole tramonta alle ore 17:46

Data e Ora Cielo e Fenomeni T °C DP °C Um. % Pres. hPa Vis. km Vento km/h
Oggi h: 18:55 sereno Sereno 10 7 81 1023 10 N 1.8
Oggi h: 17:55 sereno Sereno 10 5 71 1023 10 S/SO 9.3
Oggi h: 16:55 sereno Sereno 11 5 66 1023 10 N 5.5
Oggi h: 15:55 sereno Sereno 13 6 62 1023 10 O 11.1
Oggi h: 14:55 sereno Sereno 14 6 58 1023 10 O/SO 11.1
Oggi h: 13:55 sereno Sereno 14 5 54 1023 10 O/SO 9.3
Oggi h: 12:55 sereno Sereno 14 4 50 1024 10 N 3.7
Oggi h: 10:55 poco_nuvoloso Poco Nuvoloso 11 -0 46 1025 10 NE 7.4
Oggi h: 09:55 poco_nuvoloso Poco Nuvoloso 7 1 65 1024 10 NE 9.3
Oggi h: 08:55 poco_nuvoloso Poco Nuvoloso 6 2 75 1024 10 E/NE 9.3
Oggi h: 07:55 poco_nuvoloso Poco Nuvoloso 2 0 86 1024 10 N/NE 11.1
Oggi h: 06:55 sereno Sereno 2 -0 86 1024 10 N 7.4
Oggi h: 05:55 sereno Sereno 2 -1 80 1023 10 N/NE 9.3
Oggi h: 04:55 sereno Sereno 2 -1 80 1024 10 N/NE 11.1
Oggi h: 03:55 sereno Sereno 2 2 100 1024 10 N/NE 7.4
Oggi h: 02:55 sereno Sereno 3 -0 80 1024 10 N/NE 7.4
Oggi h: 01:55 sereno Sereno 2 1 93 1024 10 N 5.5
Oggi h: 00:55 sereno Sereno 3 2 93 1024 10 N 5.5
Ieri h: 23:55 sereno Sereno 4 2 86 1024 10 N 3.7
Ieri h: 22:55 sereno Sereno 5 0 70 1024 10 E/NE 7.4
Ieri h: 21:55 sereno Sereno 5 2 80 1024 10 N 5.5
Ieri h: 20:55 sereno Sereno 5 4 93 1024 10 N 3.7
Ieri h: 19:55 sereno Sereno 8 5 81 1023 10 N 0